Terminal Aerodrome Forecast
Issued by NWS

Home | Current Version | Previous Version | Text Only | Print | Product List | Glossary On
Versions: 1 2 3 4 5 6 7 8 9 10 11 12 13 14 15 16 17 18 19
000
FTUS41 KBTV 032334
TAFMPV
TAF
KMPV 032334Z 0400/0424 31009KT P6SM VCSH BKN030 OVC045
      TEMPO 0400/0404 2SM -SHSN SCT020 BKN025 OVC040
     FM040600 32007KT P6SM VCSH OVC030
     FM041600 32008KT P6SM BKN035
     FM042200 33004KT P6SM BKN150=

USA.gov is the U.S. government's official web portal to all federal, state and local government web resources and services.